Time,TemperatureF,DewpointF,PressureIn,WindDirection,WindDirectionDegrees,WindSpeedMPH,WindSpeedGustMPH,Humidity,HourlyPrecipIn,Conditions,Clouds,dailyrainin,SolarRadiationWatts/m^2,SoftwareType,DateUTC
2013-02-08 00:00:00,32.7,32.0,29.86,WNW,286,8.1,9.3,98,0.00,,,0.00,0,TxWx,2013-02-08 06:00:00,
2013-02-08 00:05:00,32.7,32.0,29.87,WNW,300,9.6,12.9,98,0.00,,,0.00,0,TxWx,2013-02-08 06:05:00,
2013-02-08 00:11:00,32.7,32.0,29.86,NW,307,11.4,13.2,98,0.00,,,0.00,0,TxWx,2013-02-08 06:11:00,
2013-02-08 00:16:00,32.8,32.0,29.86,NNW,342,6.0,7.5,98,0.00,,,0.00,0,TxWx,2013-02-08 06:16:00,
2013-02-08 00:21:00,32.8,32.0,29.86,NNW,328,12.9,12.9,98,0.00,,,0.00,0,TxWx,2013-02-08 06:21:00,
2013-02-08 00:26:00,32.8,32.0,29.87,WNW,282,8.7,12.6,98,0.00,,,0.00,0,TxWx,2013-02-08 06:26:00,
2013-02-08 00:31:00,32.9,32.0,29.87,NW,309,5.1,5.1,98,0.00,,,0.00,0,TxWx,2013-02-08 06:31:00,
2013-02-08 00:37:00,32.9,32.0,29.87,NNW,327,7.2,7.2,98,0.00,,,0.00,0,TxWx,2013-02-08 06:37:00,
2013-02-08 00:42:00,33.0,32.0,29.87,NW,325,9.9,10.8,98,0.00,,,0.00,0,TxWx,2013-02-08 06:42:00,
2013-02-08 00:47:00,33.0,32.0,29.87,West,275,12.0,13.8,98,0.00,,,0.00,0,TxWx,2013-02-08 06:47:00,
2013-02-08 00:52:00,33.1,32.0,29.88,West,275,8.7,10.2,98,0.00,,,0.00,0,TxWx,2013-02-08 06:52:00,
2013-02-08 00:58:00,33.2,32.0,29.88,NW,317,10.8,13.5,98,0.00,,,0.00,0,TxWx,2013-02-08 06:58:00,
2013-02-08 01:03:00,33.3,32.0,29.88,NNW,330,6.9,6.9,98,0.00,,,0.00,0,TxWx,2013-02-08 07:03:00,
2013-02-08 01:08:00,33.4,32.0,29.88,WNW,295,11.4,11.4,98,0.00,,,0.00,0,TxWx,2013-02-08 07:08:00,
2013-02-08 01:13:00,33.2,32.0,29.88,NNW,333,5.1,6.0,97,0.00,,,0.00,0,TxWx,2013-02-08 07:13:00,
2013-02-08 01:18:00,32.9,32.0,29.88,NNW,338,5.1,5.1,97,0.00,,,0.00,0,TxWx,2013-02-08 07:18:00,
2013-02-08 01:23:00,32.7,32.0,29.89,NNE,16,5.1,6.0,97,0.00,,,0.00,0,TxWx,2013-02-08 07:23:00,
2013-02-08 01:28:00,32.6,32.0,29.89,West,280,7.2,7.2,97,0.00,,,0.00,0,TxWx,2013-02-08 07:28:00,
2013-02-08 01:33:00,32.5,31.0,29.89,NNW,343,7.8,8.1,96,0.00,,,0.00,0,TxWx,2013-02-08 07:33:00,
2013-02-08 01:39:00,32.4,30.0,29.90,NNW,343,7.2,7.2,96,0.00,,,0.00,0,TxWx,2013-02-08 07:39:00,
2013-02-08 01:44:00,32.4,30.0,29.90,NNW,336,9.9,9.9,96,0.00,,,0.00,0,TxWx,2013-02-08 07:44:00,
2013-02-08 01:49:00,32.3,30.0,29.90,WNW,303,4.2,4.5,96,0.00,,,0.00,0,TxWx,2013-02-08 07:49:00,
2013-02-08 01:54:00,32.0,30.0,29.91,NNW,335,5.4,7.5,96,0.00,,,0.00,0,TxWx,2013-02-08 07:54:00,
2013-02-08 02:00:00,31.9,30.0,29.91,WNW,289,4.8,5.4,96,0.00,,,0.00,0,TxWx,2013-02-08 08:00:00,
2013-02-08 02:05:00,31.7,30.0,29.91,NNW,329,9.3,9.6,96,0.00,,,0.00,0,TxWx,2013-02-08 08:05:00,
2013-02-08 02:10:00,31.5,30.0,29.91,North,2,8.1,8.1,96,0.00,,,0.00,0,TxWx,2013-02-08 08:10:00,
2013-02-08 02:16:00,31.5,29.0,29.91,NW,309,4.8,7.5,97,0.00,,,0.00,0,TxWx,2013-02-08 08:16:00,
2013-02-08 02:21:00,31.4,29.0,29.91,North,349,13.2,13.2,97,0.00,,,0.00,0,TxWx,2013-02-08 08:21:00,
2013-02-08 02:26:00,31.4,29.0,29.92,NE,35,8.4,8.4,96,0.00,,,0.00,0,TxWx,2013-02-08 08:26:00,
2013-02-08 02:31:00,31.3,29.0,29.92,NW,324,13.5,13.5,97,0.00,,,0.00,0,TxWx,2013-02-08 08:31:00,
2013-02-08 02:36:00,31.3,29.0,29.92,NW,312,9.6,9.6,97,0.00,,,0.00,0,TxWx,2013-02-08 08:36:00,
2013-02-08 02:41:00,31.2,29.0,29.92,NW,315,15.3,16.2,97,0.00,,,0.00,0,TxWx,2013-02-08 08:41:00,
2013-02-08 02:47:00,31.1,29.0,29.92,NW,308,14.4,18.3,97,0.00,,,0.00,0,TxWx,2013-02-08 08:47:00,
2013-02-08 02:52:00,31.1,29.0,29.93,NW,323,8.1,8.1,97,0.00,,,0.00,0,TxWx,2013-02-08 08:52:00,
2013-02-08 02:57:00,31.0,29.0,29.93,NW,316,11.7,14.4,97,0.00,,,0.00,0,TxWx,2013-02-08 08:57:00,
2013-02-08 03:02:00,31.0,29.0,29.93,NW,319,9.9,10.2,97,0.00,,,0.00,0,TxWx,2013-02-08 09:02:00,
2013-02-08 03:07:00,30.9,29.0,29.94,NNW,333,6.6,6.6,96,0.00,,,0.00,0,TxWx,2013-02-08 09:07:00,
2013-02-08 03:13:00,30.7,29.0,29.94,North,353,6.6,7.8,96,0.00,,,0.00,0,TxWx,2013-02-08 09:13:00,
2013-02-08 03:18:00,30.6,29.0,29.94,NW,324,11.1,11.1,96,0.00,,,0.00,0,TxWx,2013-02-08 09:18:00,
2013-02-08 03:23:00,30.5,28.0,29.95,WNW,293,6.9,6.9,96,0.00,,,0.00,0,TxWx,2013-02-08 09:23:00,
2013-02-08 03:28:00,30.4,28.0,29.95,WNW,285,14.4,15.9,96,0.00,,,0.00,0,TxWx,2013-02-08 09:28:00,
2013-02-08 03:33:00,30.3,28.0,29.95,WNW,286,6.6,7.8,96,0.00,,,0.00,0,TxWx,2013-02-08 09:33:00,
2013-02-08 03:38:00,30.0,28.0,29.96,West,270,13.5,14.7,96,0.00,,,0.00,0,TxWx,2013-02-08 09:38:00,
2013-02-08 03:43:00,29.9,28.0,29.96,NNW,329,10.2,10.2,96,0.00,,,0.00,0,TxWx,2013-02-08 09:43:00,
2013-02-08 03:49:00,30.0,28.0,29.97,NW,305,11.7,12.3,97,0.00,,,0.00,0,TxWx,2013-02-08 09:49:00,
2013-02-08 03:54:00,29.9,28.0,29.97,NW,311,9.9,9.9,96,0.00,,,0.00,0,TxWx,2013-02-08 09:54:00,
2013-02-08 03:59:00,29.7,28.0,29.97,NW,323,6.9,7.8,96,0.00,,,0.00,0,TxWx,2013-02-08 09:59:00,
2013-02-08 04:04:00,29.6,28.0,29.98,NNW,343,12.3,12.3,96,0.00,,,0.00,0,TxWx,2013-02-08 10:04:00,
2013-02-08 04:09:00,29.4,27.0,29.98,WNW,303,7.5,7.5,96,0.00,,,0.00,0,TxWx,2013-02-08 10:09:00,
2013-02-08 04:14:00,29.3,27.0,29.98,North,360,8.7,10.2,95,0.00,,,0.00,0,TxWx,2013-02-08 10:14:00,
2013-02-08 04:20:00,29.2,27.0,29.98,North,350,10.8,10.8,96,0.00,,,0.00,0,TxWx,2013-02-08 10:20:00,
2013-02-08 04:25:00,29.1,27.0,29.98,NNW,331,11.4,12.3,95,0.00,,,0.00,0,TxWx,2013-02-08 10:25:00,
2013-02-08 04:30:00,29.1,27.0,29.99,North,360,5.7,7.2,95,0.00,,,0.00,0,TxWx,2013-02-08 10:30:00,
2013-02-08 04:35:00,29.1,27.0,29.99,North,350,11.7,11.7,95,0.00,,,0.00,0,TxWx,2013-02-08 10:35:00,
2013-02-08 04:40:00,29.1,26.0,29.99,NW,326,9.9,10.8,94,0.00,,,0.00,0,TxWx,2013-02-08 10:40:00,
2013-02-08 04:45:00,29.1,26.0,30.00,WNW,293,15.0,17.1,94,0.00,,,0.00,0,TxWx,2013-02-08 10:45:00,
2013-02-08 04:50:00,29.2,26.0,30.00,NNE,21,12.3,12.6,94,0.00,,,0.00,0,TxWx,2013-02-08 10:50:00,
2013-02-08 04:55:00,29.3,26.0,30.00,North,5,11.1,11.7,94,0.00,,,0.00,0,TxWx,2013-02-08 10:55:00,
2013-02-08 05:00:00,29.3,26.0,30.01,WNW,284,5.4,6.0,94,0.00,,,0.00,0,TxWx,2013-02-08 11:00:00,
2013-02-08 05:05:00,29.2,27.0,30.00,West,276,4.2,6.6,95,0.00,,,0.00,0,TxWx,2013-02-08 11:05:00,
2013-02-08 05:10:00,29.3,27.0,30.01,WSW,258,2.1,3.0,95,0.00,,,0.00,0,TxWx,2013-02-08 11:10:00,
2013-02-08 05:16:00,29.3,27.0,30.01,NNE,28,6.6,6.6,95,0.00,,,0.00,0,TxWx,2013-02-08 11:16:00,
2013-02-08 05:21:00,29.3,26.0,30.02,NW,316,8.4,8.4,94,0.00,,,0.00,0,TxWx,2013-02-08 11:21:00,
2013-02-08 05:26:00,29.3,26.0,30.02,West,274,8.4,8.4,94,0.00,,,0.00,0,TxWx,2013-02-08 11:26:00,
2013-02-08 05:31:00,29.4,26.0,30.02,NW,325,13.5,14.4,94,0.00,,,0.00,0,TxWx,2013-02-08 11:31:00,
2013-02-08 05:36:00,29.6,27.0,30.02,North,354,9.3,11.1,94,0.00,,,0.00,0,TxWx,2013-02-08 11:36:00,
2013-02-08 05:41:00,29.9,27.0,30.03,NNW,335,11.7,11.7,94,0.00,,,0.00,0,TxWx,2013-02-08 11:41:00,
2013-02-08 05:46:00,30.0,27.0,30.03,NW,312,11.7,12.9,94,0.00,,,0.00,0,TxWx,2013-02-08 11:46:00,
2013-02-08 05:51:00,30.2,27.0,30.03,NW,309,12.3,12.3,94,0.00,,,0.00,0,TxWx,2013-02-08 11:51:00,
2013-02-08 05:57:00,30.3,27.0,30.03,North,358,4.2,5.4,94,0.00,,,0.00,0,TxWx,2013-02-08 11:57:00,
2013-02-08 06:02:00,30.5,27.0,30.04,NNW,329,4.8,4.8,94,0.00,,,0.00,0,TxWx,2013-02-08 12:02:00,
2013-02-08 06:07:00,30.6,28.0,30.04,North,352,7.8,10.2,94,0.00,,,0.00,0,TxWx,2013-02-08 12:07:00,
2013-02-08 06:12:00,30.6,28.0,30.04,NW,319,12.6,16.5,93,0.00,,,0.00,0,TxWx,2013-02-08 12:12:00,
2013-02-08 06:17:00,30.7,28.0,30.04,NNW,331,6.9,6.9,94,0.00,,,0.00,0,TxWx,2013-02-08 12:17:00,
2013-02-08 06:22:00,30.9,28.0,30.04,WSW,242,9.3,9.3,94,0.00,,,0.00,0,TxWx,2013-02-08 12:22:00,
2013-02-08 06:27:00,31.2,28.0,30.05,NNW,335,10.2,11.1,94,0.00,,,0.00,0,TxWx,2013-02-08 12:27:00,
2013-02-08 06:32:00,31.3,28.0,30.05,NNW,341,19.5,19.5,93,0.00,,,0.00,0,TxWx,2013-02-08 12:32:00,
2013-02-08 06:38:00,31.4,28.0,30.06,North,8,4.2,4.2,93,0.00,,,0.00,0,TxWx,2013-02-08 12:38:00,
2013-02-08 06:43:00,31.4,28.0,30.06,NW,325,11.1,12.0,93,0.00,,,0.00,0,TxWx,2013-02-08 12:43:00,
2013-02-08 06:48:00,31.5,28.0,30.07,NNW,343,5.7,5.7,94,0.00,,,0.00,0,TxWx,2013-02-08 12:48:00,
2013-02-08 06:53:00,31.6,29.0,30.07,North,9,6.6,6.9,94,0.00,,,0.00,0,TxWx,2013-02-08 12:53:00,
2013-02-08 06:58:00,31.8,29.0,30.07,NNE,32,12.0,12.0,94,0.00,,,0.00,0,TxWx,2013-02-08 12:58:00,
2013-02-08 07:03:00,31.9,29.0,30.07,WNW,285,8.1,9.9,93,0.00,,,0.00,1,TxWx,2013-02-08 13:03:00,
2013-02-08 07:08:00,32.1,29.0,30.08,NNW,342,2.1,2.7,93,0.00,,,0.00,1,TxWx,2013-02-08 13:08:00,
2013-02-08 07:13:00,32.2,29.0,30.08,NNW,346,6.0,6.3,92,0.00,,,0.00,3,TxWx,2013-02-08 13:13:00,
2013-02-08 07:19:00,32.4,29.0,30.08,NNW,337,4.8,5.1,91,0.00,,,0.00,5,TxWx,2013-02-08 13:19:00,
2013-02-08 07:24:00,32.6,29.0,30.09,North,352,10.8,10.8,88,0.00,,,0.00,6,TxWx,2013-02-08 13:24:00,
2013-02-08 07:29:00,32.9,28.0,30.09,North,11,10.5,12.9,85,0.00,,,0.00,6,TxWx,2013-02-08 13:29:00,
2013-02-08 07:34:00,32.9,28.0,30.09,North,2,10.2,15.0,84,0.00,,,0.00,6,TxWx,2013-02-08 13:34:00,
2013-02-08 07:40:00,32.9,28.0,30.09,NNE,13,16.5,16.5,84,0.00,,,0.00,6,TxWx,2013-02-08 13:40:00,
2013-02-08 07:45:00,33.0,28.0,30.10,NNE,27,6.0,6.0,84,0.00,,,0.00,9,TxWx,2013-02-08 13:45:00,
2013-02-08 07:50:00,33.1,28.0,30.11,North,349,3.9,5.4,84,0.00,,,0.00,10,TxWx,2013-02-08 13:50:00,
2013-02-08 07:55:00,33.2,28.0,30.11,NNE,23,11.4,12.0,84,0.00,,,0.00,10,TxWx,2013-02-08 13:55:00,
2013-02-08 08:00:00,33.2,27.0,30.12,NW,305,5.7,5.7,83,0.00,,,0.00,11,TxWx,2013-02-08 14:00:00,
2013-02-08 08:06:00,33.2,27.0,30.12,NW,318,3.9,4.5,83,0.00,,,0.00,15,TxWx,2013-02-08 14:06:00,
2013-02-08 08:11:00,33.2,27.0,30.13,NW,312,7.2,7.2,82,0.00,,,0.00,15,TxWx,2013-02-08 14:11:00,
2013-02-08 08:16:00,33.2,27.0,30.13,NNW,347,7.8,8.7,82,0.00,,,0.00,15,TxWx,2013-02-08 14:16:00,
2013-02-08 08:21:00,33.2,27.0,30.13,NW,321,5.7,7.5,81,0.00,,,0.00,19,TxWx,2013-02-08 14:21:00,
2013-02-08 08:26:00,33.2,27.0,30.14,North,353,3.3,3.3,81,0.00,,,0.00,20,TxWx,2013-02-08 14:26:00,
2013-02-08 08:31:00,33.2,26.0,30.14,North,351,11.7,14.4,80,0.00,,,0.00,32,TxWx,2013-02-08 14:31:00,
2013-02-08 08:36:00,33.2,26.0,30.14,North,5,17.4,19.2,78,0.00,,,0.00,34,TxWx,2013-02-08 14:36:00,
2013-02-08 08:41:00,33.2,26.0,30.14,NE,42,19.2,22.2,78,0.00,,,0.00,39,TxWx,2013-02-08 14:41:00,
2013-02-08 08:46:00,33.2,26.0,30.14,North,3,13.2,13.8,78,0.00,,,0.00,36,TxWx,2013-02-08 14:46:00,
2013-02-08 08:52:00,33.1,26.0,30.15,NNW,339,6.3,9.0,78,0.00,,,0.00,40,TxWx,2013-02-08 14:52:00,
2013-02-08 08:57:00,33.1,26.0,30.15,North,351,6.3,6.6,79,0.00,,,0.00,41,TxWx,2013-02-08 14:57:00,
2013-02-08 09:02:00,33.1,26.0,30.15,North,7,14.4,14.7,79,0.00,,,0.00,40,TxWx,2013-02-08 15:02:00,
2013-02-08 09:07:00,33.0,26.0,30.15,NNE,18,9.6,11.4,79,0.00,,,0.00,50,TxWx,2013-02-08 15:07:00,
2013-02-08 09:13:00,33.0,26.0,30.16,NNE,25,5.7,5.7,79,0.00,,,0.00,48,TxWx,2013-02-08 15:13:00,
2013-02-08 09:18:00,33.0,26.0,30.16,NNW,340,2.1,2.1,79,0.00,,,0.00,59,TxWx,2013-02-08 15:18:00,
2013-02-08 09:23:00,32.9,26.0,30.16,NNE,13,14.4,14.4,79,0.00,,,0.00,74,TxWx,2013-02-08 15:23:00,
2013-02-08 09:28:00,32.9,26.0,30.16,North,8,10.8,11.4,78,0.00,,,0.00,78,TxWx,2013-02-08 15:28:00,
2013-02-08 09:33:00,32.9,26.0,30.16,NNE,33,20.7,20.7,78,0.00,,,0.00,89,TxWx,2013-02-08 15:33:00,
2013-02-08 09:38:00,33.1,25.0,30.17,NNE,19,8.7,9.9,77,0.00,,,0.00,83,TxWx,2013-02-08 15:38:00,
2013-02-08 09:43:00,33.2,26.0,30.17,North,5,14.7,14.7,77,0.00,,,0.00,86,TxWx,2013-02-08 15:43:00,
2013-02-08 09:48:00,33.2,25.0,30.17,NNE,16,15.9,15.9,77,0.00,,,0.00,95,TxWx,2013-02-08 15:48:00,
2013-02-08 09:54:00,33.2,25.0,30.18,North,355,5.7,5.7,76,0.00,,,0.00,105,TxWx,2013-02-08 15:54:00,
2013-02-08 09:59:00,33.2,25.0,30.18,North,360,15.6,19.2,76,0.00,,,0.00,96,TxWx,2013-02-08 15:59:00,
2013-02-08 10:04:00,33.2,25.0,30.19,NNE,16,17.4,17.4,76,0.00,,,0.01,88,TxWx,2013-02-08 16:04:00,
2013-02-08 10:09:00,33.2,25.0,30.19,NNE,14,5.7,5.7,76,0.00,,,0.01,85,TxWx,2013-02-08 16:09:00,
2013-02-08 10:14:00,33.2,25.0,30.20,NNW,348,8.4,10.2,77,0.06,,,0.01,107,TxWx,2013-02-08 16:14:00,
2013-02-08 10:20:00,33.1,26.0,30.20,NNE,12,18.6,19.8,77,0.06,,,0.01,96,TxWx,2013-02-08 16:20:00,
2013-02-08 10:25:00,33.1,26.0,30.20,North,2,8.1,8.1,77,0.00,,,0.01,87,TxWx,2013-02-08 16:25:00,
2013-02-08 10:30:00,33.2,26.0,30.20,North,359,9.3,9.9,78,0.00,,,0.01,83,TxWx,2013-02-08 16:30:00,
2013-02-08 10:35:00,33.0,26.0,30.20,NNE,22,13.2,14.7,78,0.00,,,0.01,87,TxWx,2013-02-08 16:35:00,
2013-02-08 10:40:00,32.9,26.0,30.20,NNE,18,21.0,21.0,78,0.00,,,0.01,99,TxWx,2013-02-08 16:40:00,
2013-02-08 10:45:00,33.0,26.0,30.21,NNE,18,13.5,14.7,79,0.00,,,0.01,77,TxWx,2013-02-08 16:45:00,
2013-02-08 10:51:00,32.9,26.0,30.21,NNE,15,10.5,10.5,79,0.00,,,0.01,100,TxWx,2013-02-08 16:51:00,
2013-02-08 10:56:00,32.9,26.0,30.21,NNE,13,12.9,13.5,79,0.00,,,0.01,130,TxWx,2013-02-08 16:56:00,
2013-02-08 11:01:00,33.1,26.0,30.21,North,358,7.5,9.3,79,0.00,,,0.01,122,TxWx,2013-02-08 17:01:00,
2013-02-08 11:06:00,33.1,26.0,30.21,North,4,13.8,14.1,79,0.00,,,0.01,118,TxWx,2013-02-08 17:06:00,
2013-02-08 11:11:00,33.2,26.0,30.21,North,358,13.2,15.6,78,0.00,,,0.01,157,TxWx,2013-02-08 17:11:00,
2013-02-08 11:16:00,33.3,26.0,30.21,NNE,30,17.4,17.7,77,0.00,,,0.01,125,TxWx,2013-02-08 17:16:00,
2013-02-08 11:21:00,33.3,25.0,30.21,North,5,20.4,20.4,76,0.00,,,0.01,158,TxWx,2013-02-08 17:21:00,
2013-02-08 11:26:00,33.4,25.0,30.21,NNE,18,11.4,12.9,75,0.00,,,0.01,93,TxWx,2013-02-08 17:26:00,
2013-02-08 11:32:00,33.5,26.0,30.22,North,357,9.6,12.0,75,0.00,,,0.01,135,TxWx,2013-02-08 17:32:00,
2013-02-08 11:37:00,33.6,25.0,30.21,NNE,18,12.3,12.3,73,0.00,,,0.01,190,TxWx,2013-02-08 17:37:00,
2013-02-08 11:42:00,33.7,25.0,30.22,NNE,15,14.4,16.8,73,0.00,,,0.01,148,TxWx,2013-02-08 17:42:00,
2013-02-08 11:47:00,33.6,25.0,30.22,North,7,11.1,13.8,73,0.00,,,0.01,110,TxWx,2013-02-08 17:47:00,
2013-02-08 11:52:00,33.3,25.0,30.22,NNE,22,13.8,13.8,75,0.00,,,0.01,121,TxWx,2013-02-08 17:52:00,
2013-02-08 11:57:00,33.1,25.0,30.22,NNE,12,17.4,19.2,76,0.00,,,0.01,124,TxWx,2013-02-08 17:57:00,
2013-02-08 12:02:00,33.3,25.0,30.22,NNE,15,6.3,10.2,76,0.00,,,0.01,162,TxWx,2013-02-08 18:02:00,
2013-02-08 12:08:00,33.4,25.0,30.22,NE,35,5.1,5.1,75,0.00,,,0.01,146,TxWx,2013-02-08 18:08:00,
2013-02-08 12:13:00,33.3,25.0,30.22,NNE,21,7.8,9.6,75,0.00,,,0.01,156,TxWx,2013-02-08 18:13:00,
2013-02-08 12:18:00,33.3,25.0,30.22,NNE,13,12.3,12.3,75,0.00,,,0.01,140,TxWx,2013-02-08 18:18:00,
2013-02-08 12:23:00,33.2,25.0,30.22,North,351,6.6,14.1,74,0.00,,,0.01,124,TxWx,2013-02-08 18:23:00,
2013-02-08 12:28:00,32.3,25.0,30.22,NNW,327,4.8,4.8,79,0.00,,,0.01,125,TxWx,2013-02-08 18:28:00,
2013-02-08 12:33:00,31.3,26.0,30.22,NNW,339,6.3,6.6,85,0.00,,,0.01,93,TxWx,2013-02-08 18:33:00,
2013-02-08 12:39:00,31.0,27.0,30.22,WNW,303,6.6,6.9,87,0.00,,,0.01,75,TxWx,2013-02-08 18:39:00,
2013-02-08 12:44:00,30.8,27.0,30.23,NNW,332,11.4,12.0,88,0.00,,,0.01,62,TxWx,2013-02-08 18:44:00,
2013-02-08 12:49:00,30.8,27.0,30.23,NW,313,4.8,4.8,88,0.00,,,0.01,56,TxWx,2013-02-08 18:49:00,
2013-02-08 12:54:00,30.8,27.0,30.23,WNW,291,4.8,5.7,89,0.00,,,0.01,61,TxWx,2013-02-08 18:54:00,
2013-02-08 12:59:00,30.9,27.0,30.23,WNW,286,4.8,5.7,89,0.00,,,0.01,68,TxWx,2013-02-08 18:59:00,
2013-02-08 13:04:00,30.9,27.0,30.24,North,9,3.3,4.8,90,0.00,,,0.01,57,TxWx,2013-02-08 19:04:00,
2013-02-08 13:09:00,31.0,27.0,30.24,NNW,337,3.3,3.3,90,0.00,,,0.01,55,TxWx,2013-02-08 19:09:00,
2013-02-08 13:15:00,30.8,27.0,30.24,NNW,328,4.8,7.2,90,0.00,,,0.01,51,TxWx,2013-02-08 19:15:00,
2013-02-08 13:20:00,30.8,27.0,30.24,NW,316,4.8,6.0,90,0.00,,,0.01,35,TxWx,2013-02-08 19:20:00,
2013-02-08 13:25:00,30.8,28.0,30.24,WSW,255,3.9,3.9,91,0.00,,,0.01,32,TxWx,2013-02-08 19:25:00,
2013-02-08 13:30:00,30.3,27.0,30.24,NNE,18,7.5,7.5,91,0.00,,,0.01,32,TxWx,2013-02-08 19:30:00,
2013-02-08 13:35:00,30.3,27.0,30.24,SW,216,1.5,1.8,91,0.00,,,0.01,35,TxWx,2013-02-08 19:35:00,
2013-02-08 13:40:00,30.4,27.0,30.24,NW,307,3.6,3.9,91,0.00,,,0.01,45,TxWx,2013-02-08 19:40:00,
2013-02-08 13:45:00,30.2,27.0,30.24,NW,311,9.6,9.6,91,0.00,,,0.01,38,TxWx,2013-02-08 19:45:00,
2013-02-08 13:50:00,30.3,27.0,30.25,NE,51,3.0,3.3,91,0.00,,,0.01,35,TxWx,2013-02-08 19:50:00,
2013-02-08 13:55:00,30.1,27.0,30.25,NW,315,2.7,3.0,92,0.00,,,0.01,35,TxWx,2013-02-08 19:55:00,
2013-02-08 14:01:00,29.8,27.0,30.25,WNW,292,3.0,3.0,92,0.00,,,0.01,36,TxWx,2013-02-08 20:01:00,
2013-02-08 14:06:00,29.6,27.0,30.25,NW,305,4.5,5.1,92,0.00,,,0.01,50,TxWx,2013-02-08 20:06:00,
2013-02-08 14:11:00,29.4,26.0,30.25,NW,306,4.2,5.4,93,0.00,,,0.01,46,TxWx,2013-02-08 20:11:00,
2013-02-08 14:17:00,29.3,26.0,30.25,NNW,342,7.2,7.2,94,0.00,,,0.01,40,TxWx,2013-02-08 20:17:00,
2013-02-08 14:22:00,29.1,26.0,30.25,NNW,345,3.9,6.0,94,0.00,,,0.01,40,TxWx,2013-02-08 20:22:00,
2013-02-08 14:27:00,29.0,26.0,30.26,NNE,16,2.7,2.7,94,0.00,,,0.01,58,TxWx,2013-02-08 20:27:00,
2013-02-08 14:32:00,29.0,26.0,30.25,NNW,327,5.4,5.4,94,0.00,,,0.01,63,TxWx,2013-02-08 20:32:00,
2013-02-08 14:38:00,29.1,27.0,30.26,West,262,2.4,3.0,95,0.00,,,0.01,47,TxWx,2013-02-08 20:38:00,
2013-02-08 14:43:00,29.0,27.0,30.26,North,353,6.9,6.9,95,0.00,,,0.01,50,TxWx,2013-02-08 20:43:00,
2013-02-08 14:48:00,29.0,26.0,30.26,North,358,5.4,6.6,94,0.00,,,0.01,48,TxWx,2013-02-08 20:48:00,
2013-02-08 14:53:00,28.9,26.0,30.26,NW,308,7.2,7.8,94,0.00,,,0.01,43,TxWx,2013-02-08 20:53:00,
2013-02-08 14:58:00,29.0,26.0,30.26,NW,309,6.9,9.9,94,0.00,,,0.01,42,TxWx,2013-02-08 20:58:00,
2013-02-08 15:03:00,28.9,26.0,30.26,NNW,348,7.5,7.5,94,0.00,,,0.01,44,TxWx,2013-02-08 21:03:00,
2013-02-08 15:08:00,28.9,26.0,30.27,NW,317,4.5,4.8,93,0.00,,,0.01,49,TxWx,2013-02-08 21:08:00,
2013-02-08 15:14:00,29.1,26.0,30.26,NNW,335,9.0,9.9,94,0.00,,,0.01,43,TxWx,2013-02-08 21:14:00,
2013-02-08 15:19:00,29.1,26.0,30.27,WNW,299,9.0,9.0,93,0.00,,,0.01,43,TxWx,2013-02-08 21:19:00,
2013-02-08 15:24:00,29.2,26.0,30.27,NW,319,3.0,3.0,93,0.00,,,0.01,40,TxWx,2013-02-08 21:24:00,
2013-02-08 15:29:00,29.4,26.0,30.27,WNW,298,7.2,8.4,93,0.00,,,0.01,38,TxWx,2013-02-08 21:29:00,
2013-02-08 15:34:00,29.5,27.0,30.28,NNW,343,2.1,2.4,93,0.00,,,0.01,37,TxWx,2013-02-08 21:34:00,
2013-02-08 15:39:00,29.5,27.0,30.28,NW,324,8.7,8.7,93,0.00,,,0.01,43,TxWx,2013-02-08 21:39:00,
2013-02-08 15:44:00,29.5,26.0,30.28,NNW,333,9.9,13.2,92,0.00,,,0.01,39,TxWx,2013-02-08 21:44:00,
2013-02-08 15:49:00,29.6,27.0,30.28,NNE,19,3.0,4.2,92,0.00,,,0.01,52,TxWx,2013-02-08 21:49:00,
2013-02-08 15:54:00,29.5,27.0,30.28,NW,311,4.2,4.5,92,0.00,,,0.01,46,TxWx,2013-02-08 21:54:00,
2013-02-08 16:00:00,29.7,27.0,30.28,NNW,345,3.6,4.2,92,0.00,,,0.01,49,TxWx,2013-02-08 22:00:00,
2013-02-08 16:05:00,29.5,26.0,30.28,NE,38,3.9,3.9,92,0.00,,,0.01,33,TxWx,2013-02-08 22:05:00,
2013-02-08 16:10:00,29.5,27.0,30.28,NW,306,6.0,6.6,92,0.00,,,0.01,27,TxWx,2013-02-08 22:10:00,
2013-02-08 16:15:00,29.6,27.0,30.28,ENE,72,3.0,3.6,91,0.00,,,0.01,24,TxWx,2013-02-08 22:15:00,
2013-02-08 16:20:00,29.6,27.0,30.29,NNE,27,4.5,5.1,91,0.00,,,0.01,26,TxWx,2013-02-08 22:20:00,
2013-02-08 16:26:00,29.6,27.0,30.29,West,278,3.9,3.9,91,0.00,,,0.01,19,TxWx,2013-02-08 22:26:00,
2013-02-08 16:31:00,29.4,26.0,30.29,North,10,3.3,3.9,91,0.00,,,0.01,25,TxWx,2013-02-08 22:31:00,
2013-02-08 16:36:00,29.4,25.0,30.29,North,356,4.5,5.1,90,0.00,,,0.01,18,TxWx,2013-02-08 22:36:00,
2013-02-08 16:41:00,29.5,27.0,30.29,WSW,241,1.8,1.8,91,0.00,,,0.01,10,TxWx,2013-02-08 22:41:00,
2013-02-08 16:46:00,29.3,25.0,30.29,NNW,338,5.1,6.0,90,0.00,,,0.01,11,TxWx,2013-02-08 22:46:00,
2013-02-08 16:51:00,29.3,25.0,30.30,NNW,347,3.6,4.8,90,0.00,,,0.01,7,TxWx,2013-02-08 22:51:00,
2013-02-08 16:57:00,29.2,25.0,30.30,NNW,329,3.0,3.3,90,0.00,,,0.01,6,TxWx,2013-02-08 22:57:00,
2013-02-08 17:02:00,29.2,25.0,30.30,NNW,334,6.9,6.9,90,0.00,,,0.01,4,TxWx,2013-02-08 23:02:00,
2013-02-08 17:07:00,29.0,25.0,30.30,NNW,334,6.9,6.9,90,0.00,,,0.01,3,TxWx,2013-02-08 23:07:00,
2013-02-08 17:12:00,28.9,25.0,30.30,NW,310,5.7,6.3,90,0.00,,,0.01,2,TxWx,2013-02-08 23:12:00,
2013-02-08 17:17:00,28.8,25.0,30.30,NE,47,6.0,6.3,90,0.00,,,0.01,1,TxWx,2013-02-08 23:17:00,
2013-02-08 17:22:00,28.8,25.0,30.30,North,10,6.0,6.9,90,0.00,,,0.01,0,TxWx,2013-02-08 23:22:00,
2013-02-08 17:28:00,28.8,25.0,30.31,NNW,329,2.4,2.7,90,0.00,,,0.01,0,TxWx,2013-02-08 23:28:00,
2013-02-08 17:33:00,28.8,25.0,30.31,NW,309,4.8,5.7,90,0.00,,,0.01,0,TxWx,2013-02-08 23:33:00,
2013-02-08 17:38:00,28.6,25.0,30.31,NW,305,8.7,9.9,90,0.00,,,0.01,0,TxWx,2013-02-08 23:38:00,
2013-02-08 17:43:00,28.6,25.0,30.32,WNW,303,6.9,7.5,90,0.00,,,0.01,0,TxWx,2013-02-08 23:43:00,
2013-02-08 17:48:00,28.5,25.0,30.32,WNW,301,6.0,6.6,90,0.00,,,0.01,0,TxWx,2013-02-08 23:48:00,
2013-02-08 17:53:00,28.6,25.0,30.32,NW,310,6.9,6.9,90,0.00,,,0.01,0,TxWx,2013-02-08 23:53:00,
2013-02-08 17:58:00,28.5,25.0,30.32,WNW,295,3.3,3.6,90,0.00,,,0.01,0,TxWx,2013-02-08 23:58:00,
2013-02-08 18:04:00,28.6,25.0,30.33,WNW,288,3.9,3.9,90,0.00,,,0.01,0,TxWx,2013-02-09 00:04:00,
2013-02-08 18:09:00,28.7,25.0,30.33,West,277,3.6,3.6,90,0.00,,,0.01,0,TxWx,2013-02-09 00:09:00,
2013-02-08 18:14:00,28.5,24.0,30.33,NW,311,10.2,10.5,89,0.00,,,0.01,0,TxWx,2013-02-09 00:14:00,
2013-02-08 18:20:00,28.6,25.0,30.34,WNW,293,13.2,13.2,89,0.00,,,0.01,0,TxWx,2013-02-09 00:20:00,
2013-02-08 18:25:00,28.7,25.0,30.34,NNW,346,3.6,4.5,89,0.00,,,0.01,0,TxWx,2013-02-09 00:25:00,
2013-02-08 18:30:00,28.6,25.0,30.34,NNE,12,3.6,3.6,89,0.00,,,0.01,0,TxWx,2013-02-09 00:30:00,
2013-02-08 18:36:00,28.7,25.0,30.34,NW,306,2.4,2.4,89,0.00,,,0.01,0,TxWx,2013-02-09 00:36:00,
2013-02-08 18:41:00,28.7,25.0,30.34,NW,313,3.6,3.6,89,0.00,,,0.01,0,TxWx,2013-02-09 00:41:00,
2013-02-08 18:46:00,28.7,25.0,30.33,NNE,32,2.1,2.1,89,0.00,,,0.01,0,TxWx,2013-02-09 00:46:00,
2013-02-08 18:51:00,28.7,25.0,30.33,WSW,256,3.6,3.9,89,0.00,,,0.01,0,TxWx,2013-02-09 00:51:00,
2013-02-08 18:56:00,28.8,25.0,30.33,NW,309,2.7,3.0,89,0.00,,,0.01,0,TxWx,2013-02-09 00:56:00,
2013-02-08 19:01:00,28.7,25.0,30.34,NW,326,4.5,6.3,89,0.00,,,0.01,0,TxWx,2013-02-09 01:01:00,
2013-02-08 19:06:00,28.7,25.0,30.33,West,272,7.8,7.8,88,0.00,,,0.01,0,TxWx,2013-02-09 01:06:00,
2013-02-08 19:12:00,28.7,25.0,30.33,West,278,4.5,4.5,88,0.00,,,0.01,0,TxWx,2013-02-09 01:12:00,
2013-02-08 19:17:00,28.6,25.0,30.33,NW,304,7.5,7.8,88,0.00,,,0.01,0,TxWx,2013-02-09 01:17:00,
2013-02-08 19:22:00,28.7,25.0,30.33,North,357,2.1,2.1,89,0.00,,,0.01,0,TxWx,2013-02-09 01:22:00,
2013-02-08 19:27:00,28.6,25.0,30.33,NW,304,3.6,4.2,88,0.00,,,0.01,0,TxWx,2013-02-09 01:27:00,
2013-02-08 19:32:00,28.5,25.0,30.33,NNW,332,8.1,9.3,88,0.00,,,0.01,0,TxWx,2013-02-09 01:32:00,
2013-02-08 19:38:00,28.6,25.0,30.33,NNW,347,2.7,2.7,89,0.00,,,0.01,0,TxWx,2013-02-09 01:38:00,
2013-02-08 19:43:00,28.6,25.0,30.34,WNW,283,3.6,4.2,88,0.00,,,0.01,0,TxWx,2013-02-09 01:43:00,
2013-02-08 19:48:00,28.5,25.0,30.34,NW,305,4.8,4.8,88,0.00,,,0.01,0,TxWx,2013-02-09 01:48:00,
2013-02-08 19:53:00,28.5,25.0,30.34,NW,307,4.8,5.1,88,0.00,,,0.01,0,TxWx,2013-02-09 01:53:00,
2013-02-08 19:59:00,28.5,25.0,30.34,NW,320,5.4,6.0,88,0.00,,,0.01,0,TxWx,2013-02-09 01:59:00,
2013-02-08 20:04:00,28.4,24.0,30.34,North,3,3.3,4.2,88,0.00,,,0.01,0,TxWx,2013-02-09 02:04:00,
2013-02-08 20:09:00,28.5,25.0,30.35,WNW,302,2.7,3.9,88,0.00,,,0.01,0,TxWx,2013-02-09 02:09:00,
2013-02-08 20:14:00,28.5,25.0,30.35,North,349,2.4,2.7,88,0.00,,,0.01,0,TxWx,2013-02-09 02:14:00,
2013-02-08 20:19:00,28.4,24.0,30.35,NNW,331,1.2,1.8,88,0.00,,,0.01,0,TxWx,2013-02-09 02:19:00,
2013-02-08 20:25:00,28.3,24.0,30.35,NNW,330,5.7,5.7,88,0.00,,,0.01,0,TxWx,2013-02-09 02:25:00,
2013-02-08 20:30:00,28.3,24.0,30.35,NW,320,6.0,6.0,88,0.00,,,0.01,0,TxWx,2013-02-09 02:30:00,
2013-02-08 20:35:00,28.3,24.0,30.35,WNW,299,6.9,6.9,88,0.00,,,0.01,0,TxWx,2013-02-09 02:35:00,
2013-02-08 20:40:00,28.3,24.0,30.35,West,275,7.5,7.5,88,0.00,,,0.01,0,TxWx,2013-02-09 02:40:00,
2013-02-08 20:45:00,28.3,24.0,30.35,WNW,290,7.5,7.8,88,0.00,,,0.01,0,TxWx,2013-02-09 02:45:00,
2013-02-08 20:50:00,28.3,24.0,30.35,WNW,291,8.1,8.1,88,0.00,,,0.01,0,TxWx,2013-02-09 02:50:00,
2013-02-08 20:56:00,28.3,24.0,30.35,NW,325,5.1,5.7,88,0.00,,,0.01,0,TxWx,2013-02-09 02:56:00,
2013-02-08 21:01:00,28.3,24.0,30.35,NW,311,6.0,6.0,88,0.00,,,0.01,0,TxWx,2013-02-09 03:01:00,
2013-02-08 21:06:00,28.3,24.0,30.34,WNW,287,1.2,1.5,88,0.00,,,0.01,0,TxWx,2013-02-09 03:06:00,
2013-02-08 21:11:00,28.4,24.0,30.34,WNW,300,1.5,1.5,88,0.00,,,0.01,0,TxWx,2013-02-09 03:11:00,
2013-02-08 21:16:00,28.3,24.0,30.35,WNW,300,2.4,2.4,88,0.00,,,0.01,0,TxWx,2013-02-09 03:16:00,
2013-02-08 21:21:00,28.3,24.0,30.35,North,349,4.5,5.1,88,0.00,,,0.01,0,TxWx,2013-02-09 03:21:00,
2013-02-08 21:26:00,28.3,24.0,30.35,North,5,2.7,3.0,88,0.00,,,0.01,0,TxWx,2013-02-09 03:26:00,
2013-02-08 21:31:00,28.4,24.0,30.35,NW,316,2.7,2.7,88,0.00,,,0.01,0,TxWx,2013-02-09 03:31:00,
2013-02-08 21:37:00,28.4,24.0,30.35,North,3,3.6,3.6,88,0.00,,,0.01,0,TxWx,2013-02-09 03:37:00,
2013-02-08 21:42:00,28.5,25.0,30.35,NNW,335,3.3,3.3,87,0.00,,,0.01,0,TxWx,2013-02-09 03:42:00,
2013-02-08 21:47:00,28.5,24.0,30.35,WNW,301,3.3,4.2,87,0.00,,,0.01,0,TxWx,2013-02-09 03:47:00,
2013-02-08 21:52:00,28.6,25.0,30.35,North,349,2.4,2.7,87,0.00,,,0.01,0,TxWx,2013-02-09 03:52:00,
2013-02-08 21:57:00,28.4,24.0,30.36,WNW,286,7.2,7.2,87,0.00,,,0.01,0,TxWx,2013-02-09 03:57:00,
2013-02-08 22:03:00,28.4,24.0,30.36,NW,309,4.8,5.7,87,0.00,,,0.01,0,TxWx,2013-02-09 04:03:00,
2013-02-08 22:08:00,28.5,25.0,30.36,West,280,3.3,3.3,87,0.00,,,0.01,0,TxWx,2013-02-09 04:08:00,
2013-02-08 22:13:00,28.5,25.0,30.36,WNW,288,3.3,3.3,87,0.00,,,0.01,0,TxWx,2013-02-09 04:13:00,
2013-02-08 22:18:00,28.5,25.0,30.36,WNW,303,3.6,3.9,87,0.00,,,0.01,0,TxWx,2013-02-09 04:18:00,
2013-02-08 22:24:00,28.6,25.0,30.36,North,357,2.4,2.7,87,0.00,,,0.01,0,TxWx,2013-02-09 04:24:00,
2013-02-08 22:29:00,28.6,25.0,30.35,NW,310,4.5,4.5,87,0.00,,,0.01,0,TxWx,2013-02-09 04:29:00,
2013-02-08 22:34:00,28.5,25.0,30.35,NW,325,4.2,4.5,87,0.00,,,0.01,0,TxWx,2013-02-09 04:34:00,
2013-02-08 22:39:00,28.6,25.0,30.35,NW,318,4.8,4.8,87,0.00,,,0.01,0,TxWx,2013-02-09 04:39:00,
2013-02-08 22:44:00,28.5,24.0,30.35,NW,306,3.6,3.6,87,0.00,,,0.01,0,TxWx,2013-02-09 04:44:00,
2013-02-08 22:49:00,28.6,25.0,30.34,NW,312,5.4,5.4,87,0.00,,,0.01,0,TxWx,2013-02-09 04:49:00,
2013-02-08 22:55:00,28.5,25.0,30.35,NW,318,4.5,5.4,87,0.00,,,0.01,0,TxWx,2013-02-09 04:55:00,
2013-02-08 23:00:00,28.7,25.0,30.35,North,11,0.9,1.2,87,0.00,,,0.01,0,TxWx,2013-02-09 05:00:00,
2013-02-08 23:01:00,28.7,25.0,30.35,WNW,298,1.2,1.5,87,0.00,,,0.01,0,TxWx,2013-02-09 05:01:00,
2013-02-08 23:07:00,28.6,25.0,30.35,NW,322,2.1,2.1,87,0.00,,,0.01,0,TxWx,2013-02-09 05:07:00,
2013-02-08 23:12:00,28.6,25.0,30.35,WNW,293,3.9,3.9,87,0.00,,,0.01,0,TxWx,2013-02-09 05:12:00,
2013-02-08 23:17:00,28.5,24.0,30.35,WNW,300,4.8,4.8,87,0.00,,,0.01,0,TxWx,2013-02-09 05:17:00,
2013-02-08 23:22:00,28.6,25.0,30.35,NW,307,2.7,2.7,87,0.00,,,0.01,0,TxWx,2013-02-09 05:22:00,
2013-02-08 23:27:00,28.5,24.0,30.35,NW,311,3.3,3.9,87,0.00,,,0.01,0,TxWx,2013-02-09 05:27:00,
2013-02-08 23:33:00,28.5,25.0,30.35,West,281,3.6,3.6,87,0.00,,,0.01,0,TxWx,2013-02-09 05:33:00,
2013-02-08 23:38:00,28.6,25.0,30.35,NW,309,4.2,4.5,87,0.00,,,0.01,0,TxWx,2013-02-09 05:38:00,
2013-02-08 23:43:00,28.5,24.0,30.35,WNW,286,2.4,2.7,87,0.00,,,0.01,0,TxWx,2013-02-09 05:43:00,
2013-02-08 23:46:00,28.6,25.0,30.35,NW,312,3.6,3.6,87,0.00,,,0.01,0,TxWx,2013-02-09 05:46:00,
2013-02-08 23:51:00,28.6,24.0,30.35,NNW,329,3.6,4.2,87,0.00,,,0.01,0,TxWx,2013-02-09 05:51:00,
2013-02-08 23:56:00,28.6,24.0,30.35,WNW,295,3.0,3.0,87,0.00,,,0.01,0,TxWx,2013-02-09 05:56:00,